Time;durP1;ratioP1;P1;durP2;ratioP2;P2;SDS_P1;SDS_P2;PMS_P1;PMS_P2;Temp;Humidity;BMP_temperature;BMP_pressure;BME280_temperature;BME280_humidity;BME280_pressure;Samples;Min_cycle;Max_cycle;Signal;HPM_P1;HPM_P2
2021/12/26 00:01:50;;;;;;;7.10;4.53;;;8.70;70.30;;;;;;5093108;28;20028;-61
2021/12/26 00:04:16;;;;;;;6.82;4.68;;;8.60;69.40;;;;;;5093442;28;20028;-60
2021/12/26 00:06:43;;;;;;;5.63;4.38;;;8.60;70.10;;;;;;5093214;28;20473;-60
2021/12/26 00:09:09;;;;;;;7.03;4.60;;;8.60;70.30;;;;;;5093252;28;20140;-61
2021/12/26 00:11:35;;;;;;;5.47;4.15;;;8.70;70.40;;;;;;5093072;28;20020;-61
2021/12/26 00:14:00;;;;;;;6.32;4.50;;;8.60;70.10;;;;;;5093079;28;20034;-61
2021/12/26 00:16:26;;;;;;;7.00;4.57;;;8.70;70.60;;;;;;5092948;28;20058;-61
2021/12/26 00:18:52;;;;;;;7.35;4.32;;;8.70;70.60;;;;;;5093074;28;20028;-60
2021/12/26 00:21:20;;;;;;;4.93;4.35;;;8.60;70.50;;;;;;5094525;28;20060;-60
2021/12/26 00:23:46;;;;;;;5.47;4.18;;;8.60;70.90;;;;;;5097306;28;20017;-60
2021/12/26 00:26:12;;;;;;;6.85;4.88;;;8.60;70.90;;;;;;5097407;28;20036;-60
2021/12/26 00:28:38;;;;;;;7.90;5.07;;;8.60;71.00;;;;;;5097536;28;20080;-61
2021/12/26 00:31:04;;;;;;;6.93;5.10;;;8.60;70.50;;;;;;5079008;28;20118;-59
2021/12/26 00:33:32;;;;;;;5.93;5.20;;;8.60;70.80;;;;;;5097113;28;20095;-60
2021/12/26 00:35:58;;;;;;;8.10;4.82;;;8.60;70.80;;;;;;5097238;28;20024;-61
2021/12/26 00:38:24;;;;;;;9.07;5.78;;;8.60;71.10;;;;;;5097140;28;20031;-61
2021/12/26 00:40:50;;;;;;;9.18;4.85;;;8.60;70.70;;;;;;5097127;28;20032;-61
2021/12/26 00:43:16;;;;;;;7.13;5.20;;;8.60;71.00;;;;;;5096768;28;20028;-61
2021/12/26 00:45:42;;;;;;;6.50;5.05;;;8.60;71.70;;;;;;5096746;28;20075;-60
2021/12/26 00:48:08;;;;;;;8.95;5.50;;;8.60;71.70;;;;;;5097050;28;20128;-61
2021/12/26 00:50:37;;;;;;;6.70;4.85;;;8.60;71.20;;;;;;5096951;28;20461;-61
2021/12/26 00:53:04;;;;;;;8.07;4.75;;;8.60;71.50;;;;;;5096613;28;20126;-60
2021/12/26 00:55:30;;;;;;;9.35;5.85;;;8.60;71.50;;;;;;5095647;28;20028;-59
2021/12/26 00:57:55;;;;;;;8.10;5.47;;;8.60;71.40;;;;;;5096683;28;20431;-60
2021/12/26 01:00:30;;;;;;;7.38;5.47;;;8.50;71.60;;;;;;5096500;28;20052;-61
2021/12/26 01:02:58;;;;;;;7.00;5.28;;;8.50;71.40;;;;;;5096671;28;20410;-61
2021/12/26 01:05:24;;;;;;;8.05;5.20;;;8.50;72.10;;;;;;5096715;28;20028;-60
2021/12/26 01:07:58;;;;;;;8.77;5.78;;;8.50;71.90;;;;;;5095360;28;20120;-60
2021/12/26 01:10:26;;;;;;;9.43;6.05;;;8.50;72.20;;;;;;5095175;28;20507;-61
2021/12/26 01:12:53;;;;;;;7.97;5.63;;;8.50;72.30;;;;;;5095962;28;20032;-59
2021/12/26 01:15:23;;;;;;;11.48;6.85;;;8.50;72.50;;;;;;5095216;28;20070;-59
2021/12/26 01:17:55;;;;;;;10.45;5.70;;;8.50;72.20;;;;;;5096508;28;20057;-60
2021/12/26 01:20:39;;;;;;;9.68;6.38;;;8.50;72.70;;;;;;5096378;28;20024;-60
2021/12/26 01:23:05;;;;;;;8.63;5.72;;;8.50;72.80;;;;;;5096314;28;20020;-60
2021/12/26 01:25:31;;;;;;;9.02;6.13;;;8.50;72.60;;;;;;5096320;28;20115;-61
2021/12/26 01:27:57;;;;;;;9.77;6.72;;;8.40;72.90;;;;;;5095787;28;20503;-60
2021/12/26 01:30:22;;;;;;;11.05;6.45;;;8.40;72.80;;;;;;5096373;28;20034;-60
2021/12/26 01:32:48;;;;;;;11.05;7.07;;;8.40;72.90;;;;;;5093632;28;20034;-60
2021/12/26 01:35:13;;;;;;;10.63;6.43;;;8.40;73.10;;;;;;5096079;28;20043;-59
2021/12/26 01:37:39;;;;;;;9.90;6.70;;;8.40;73.30;;;;;;5096170;28;20073;-60
2021/12/26 01:40:05;;;;;;;10.45;6.75;;;8.40;73.30;;;;;;5095713;28;20085;-60
2021/12/26 01:42:33;;;;;;;11.95;7.07;;;8.40;73.20;;;;;;5095963;28;20021;-59
2021/12/26 01:44:58;;;;;;;9.88;6.15;;;8.30;73.40;;;;;;5095705;28;20036;-61
2021/12/26 01:47:24;;;;;;;12.82;6.75;;;8.40;74.00;;;;;;5095813;28;20035;-59
2021/12/26 01:49:50;;;;;;;11.93;6.93;;;8.40;73.80;;;;;;5095650;28;20027;-60
2021/12/26 01:52:15;;;;;;;14.73;7.63;;;8.40;73.70;;;;;;5095805;28;20024;-59
2021/12/26 01:57:11;;;;;;;10.98;7.18;;;8.30;73.90;;;;;;5095494;28;20032;-59
2021/12/26 01:59:39;;;;;;;9.60;6.50;;;8.30;74.20;;;;;;5095557;28;20020;-59
2021/12/26 02:02:05;;;;;;;10.80;6.88;;;8.30;74.20;;;;;;5095376;28;20028;-61
2021/12/26 02:04:31;;;;;;;11.05;6.80;;;8.30;74.40;;;;;;5095431;28;20035;-60
2021/12/26 02:06:59;;;;;;;10.52;6.68;;;8.30;74.40;;;;;;5095570;28;20081;-59
2021/12/26 02:09:25;;;;;;;13.18;6.38;;;8.30;74.70;;;;;;5095353;28;20144;-60
2021/12/26 02:11:51;;;;;;;14.48;7.60;;;8.30;74.50;;;;;;5095115;28;20484;-61
2021/12/26 02:14:17;;;;;;;12.73;7.20;;;8.30;74.70;;;;;;5095105;28;20551;-61
2021/12/26 02:16:42;;;;;;;14.95;7.95;;;8.30;74.80;;;;;;5095409;28;20048;-59
2021/12/26 02:19:08;;;;;;;13.30;7.47;;;8.30;74.60;;;;;;5095128;28;20020;-59
2021/12/26 02:24:25;;;;;;;12.75;6.80;;;8.30;74.50;;;;;;5094983;28;20030;-59
2021/12/26 02:29:38;;;;;;;14.07;7.90;;;8.30;74.80;;;;;;5095108;28;20504;-59
2021/12/26 02:32:05;;;;;;;13.27;7.75;;;8.30;75.20;;;;;;5093759;28;20024;-59
2021/12/26 02:34:30;;;;;;;13.15;7.88;;;8.30;75.70;;;;;;5094796;28;20469;-59
2021/12/26 02:36:56;;;;;;;12.93;7.85;;;8.30;75.70;;;;;;5091039;28;20016;-61
2021/12/26 02:39:22;;;;;;;11.52;6.93;;;8.30;75.40;;;;;;5075240;28;20055;-61
2021/12/26 02:41:47;;;;;;;17.40;8.15;;;8.20;75.50;;;;;;5073136;28;20028;-61
2021/12/26 02:44:13;;;;;;;10.80;7.03;;;8.20;75.40;;;;;;5073743;28;20493;-61
2021/12/26 02:46:40;;;;;;;13.73;7.22;;;8.20;75.60;;;;;;5074496;28;20024;-59
2021/12/26 02:49:06;;;;;;;13.00;7.25;;;8.30;75.70;;;;;;5074576;28;20020;-59
2021/12/26 02:51:32;;;;;;;14.48;7.70;;;8.30;75.60;;;;;;5074135;28;20021;-59
2021/12/26 02:53:58;;;;;;;10.95;7.28;;;8.30;75.60;;;;;;5074309;28;20028;-59
2021/12/26 02:56:24;;;;;;;12.50;7.32;;;8.30;75.90;;;;;;5073844;28;20075;-59
2021/12/26 02:58:50;;;;;;;12.30;7.53;;;8.20;76.10;;;;;;5074541;28;20029;-61
2021/12/26 03:01:22;;;;;;;11.90;7.65;;;8.20;76.00;;;;;;5074078;28;20016;-61
2021/12/26 03:03:47;;;;;;;;;;;8.20;76.00;;;;;;5074685;28;20385;-61
2021/12/26 03:06:23;;;;;;;13.73;7.50;;;8.30;76.40;;;;;;5073811;28;20035;-59
2021/12/26 03:08:51;;;;;;;13.02;7.72;;;8.20;75.50;;;;;;5074081;28;20017;-59
2021/12/26 03:11:17;;;;;;;15.10;7.55;;;8.20;76.70;;;;;;5074010;28;20017;-59
2021/12/26 03:13:43;;;;;;;11.00;7.03;;;8.20;75.80;;;;;;5073910;28;20111;-62
2021/12/26 03:16:09;;;;;;;11.18;7.65;;;8.20;75.60;;;;;;5073830;28;20043;-63
2021/12/26 03:18:35;;;;;;;14.07;7.93;;;8.20;75.70;;;;;;5073764;28;20457;-62
2021/12/26 03:21:00;;;;;;;15.43;8.10;;;8.20;75.90;;;;;;5073659;28;20013;-61
2021/12/26 03:23:27;;;;;;;13.82;7.95;;;8.20;76.00;;;;;;5073403;28;20470;-60
2021/12/26 03:26:01;;;;;;;11.40;7.55;;;8.20;76.00;;;;;;5073650;28;20533;-60
2021/12/26 03:28:28;;;;;;;12.07;7.60;;;8.20;76.30;;;;;;5073444;28;20017;-60
2021/12/26 03:30:55;;;;;;;13.80;8.05;;;8.10;76.10;;;;;;5073635;28;20024;-61
2021/12/26 03:33:23;;;;;;;12.15;7.95;;;8.10;76.00;;;;;;5073533;28;20059;-62
2021/12/26 03:35:48;;;;;;;13.70;8.38;;;8.10;76.30;;;;;;5073441;28;20082;-62
2021/12/26 03:38:16;;;;;;;14.55;8.25;;;8.10;76.30;;;;;;5073200;28;20025;-62
2021/12/26 03:40:43;;;;;;;12.18;8.30;;;8.20;76.40;;;;;;5073437;28;20020;-61
2021/12/26 03:43:09;;;;;;;13.90;8.25;;;8.10;76.60;;;;;;5073277;28;20024;-61
2021/12/26 03:45:35;;;;;;;10.35;7.45;;;8.10;76.50;;;;;;5073246;28;20037;-61
2021/12/26 03:48:01;;;;;;;11.93;7.43;;;8.10;76.40;;;;;;5073587;28;20020;-62
2021/12/26 03:50:28;;;;;;;13.88;8.48;;;8.10;76.40;;;;;;5073087;28;20028;-61
2021/12/26 03:52:57;;;;;;;14.20;8.10;;;8.10;76.50;;;;;;5072959;28;20094;-61
2021/12/26 03:55:24;;;;;;;10.73;7.30;;;8.10;76.10;;;;;;5072960;28;20028;-62
2021/12/26 03:57:50;;;;;;;14.20;8.70;;;8.10;76.20;;;;;;5073251;28;20027;-61
2021/12/26 04:00:16;;;;;;;13.95;8.50;;;8.10;76.40;;;;;;5073305;28;20442;-61
2021/12/26 04:02:45;;;;;;;14.00;8.30;;;8.00;76.40;;;;;;5072857;28;20370;-61
2021/12/26 04:05:13;;;;;;;11.75;8.27;;;8.00;76.70;;;;;;5073103;28;20044;-60
2021/12/26 04:07:39;;;;;;;13.88;8.93;;;8.00;76.50;;;;;;5072860;28;20021;-62
2021/12/26 04:10:06;;;;;;;10.93;7.60;;;8.00;76.90;;;;;;5073213;28;20025;-61
2021/12/26 04:12:36;;;;;;;14.10;8.98;;;8.00;77.10;;;;;;5072797;28;20592;-62
2021/12/26 04:15:07;;;;;;;16.48;9.35;;;8.00;77.20;;;;;;5072979;28;20025;-61
2021/12/26 04:17:33;;;;;;;15.93;9.27;;;8.00;77.40;;;;;;5072992;28;20017;-61
2021/12/26 04:19:59;;;;;;;16.08;9.00;;;8.00;77.50;;;;;;5073097;28;20115;-62
2021/12/26 04:22:25;;;;;;;12.50;9.15;;;8.00;77.80;;;;;;5072663;28;20051;-59
2021/12/26 04:24:51;;;;;;;16.27;9.93;;;8.00;77.70;;;;;;5073162;28;20035;-61
2021/12/26 04:27:16;;;;;;;13.95;8.85;;;8.00;77.50;;;;;;5071554;28;20027;-61
2021/12/26 04:29:42;;;;;;;12.90;9.10;;;8.00;78.00;;;;;;5072957;28;20024;-61
2021/12/26 04:32:07;;;;;;;14.75;8.85;;;8.00;77.90;;;;;;5072796;28;20054;-61
2021/12/26 04:34:34;;;;;;;16.42;9.75;;;8.00;77.90;;;;;;5072943;28;20124;-60
2021/12/26 04:36:59;;;;;;;17.38;9.35;;;8.00;78.10;;;;;;5072553;28;20020;-61
2021/12/26 04:39:25;;;;;;;13.15;9.45;;;8.00;78.20;;;;;;5072625;28;20083;-61
2021/12/26 04:41:51;;;;;;;18.77;10.00;;;8.00;78.40;;;;;;5072706;28;20050;-61
2021/12/26 04:44:16;;;;;;;15.13;9.00;;;8.00;78.50;;;;;;5072580;28;20020;-59
2021/12/26 04:46:43;;;;;;;13.35;8.73;;;8.00;78.20;;;;;;5073101;28;20039;-62
2021/12/26 04:49:09;;;;;;;14.77;9.55;;;8.00;78.40;;;;;;5072703;28;20020;-61
2021/12/26 04:51:34;;;;;;;16.40;9.18;;;8.00;78.50;;;;;;5072231;28;20350;-61
2021/12/26 04:54:00;;;;;;;16.05;8.38;;;8.00;78.10;;;;;;5072793;28;20021;-60
2021/12/26 04:56:26;;;;;;;20.35;10.55;;;7.90;78.90;;;;;;5072635;28;20193;-61
2021/12/26 04:58:51;;;;;;;15.82;9.88;;;7.90;78.60;;;;;;5072667;28;20025;-61
2021/12/26 05:01:17;;;;;;;16.23;9.45;;;8.00;78.80;;;;;;5072578;28;20044;-61
2021/12/26 05:03:43;;;;;;;15.45;9.90;;;7.90;78.50;;;;;;5072461;28;20033;-61
2021/12/26 05:06:08;;;;;;;16.55;10.73;;;7.90;78.80;;;;;;5072364;28;20482;-60
2021/12/26 05:08:34;;;;;;;14.90;9.73;;;7.90;78.90;;;;;;5075642;28;20024;-62
2021/12/26 05:11:00;;;;;;;17.63;10.48;;;7.90;79.10;;;;;;5076406;28;20445;-61
2021/12/26 05:13:25;;;;;;;16.40;10.45;;;7.90;79.00;;;;;;5075998;28;20040;-61
2021/12/26 05:15:51;;;;;;;17.20;9.85;;;7.90;79.10;;;;;;5076171;28;20474;-61
2021/12/26 05:18:17;;;;;;;16.52;10.05;;;7.90;79.30;;;;;;5076212;28;20056;-61
2021/12/26 05:20:44;;;;;;;18.70;10.45;;;7.90;79.20;;;;;;5075970;28;20071;-61
2021/12/26 05:23:10;;;;;;;12.35;9.10;;;7.90;79.50;;;;;;5075942;28;20020;-60
2021/12/26 05:25:35;;;;;;;17.55;11.38;;;7.80;79.30;;;;;;5076054;28;20045;-60
2021/12/26 05:28:01;;;;;;;20.55;11.60;;;6.60;82.20;;;;;;5075864;28;20081;-61
2021/12/26 05:30:27;;;;;;;18.50;11.95;;;5.30;88.10;;;;;;5075968;28;20430;-61
2021/12/26 05:32:53;;;;;;;19.52;12.15;;;4.70;90.80;;;;;;5075780;28;20020;-59
2021/12/26 05:35:19;;;;;;;18.80;11.55;;;4.30;91.90;;;;;;5075564;28;20040;-58
2021/12/26 05:37:46;;;;;;;19.67;12.00;;;4.10;92.40;;;;;;5075882;28;20017;-58
2021/12/26 05:40:12;;;;;;;20.92;12.48;;;4.00;92.70;;;;;;5075584;28;20024;-59
2021/12/26 05:42:39;;;;;;;18.30;12.48;;;4.00;93.00;;;;;;5075899;28;20027;-61
2021/12/26 05:45:06;;;;;;;20.05;12.77;;;4.00;93.20;;;;;;5075496;28;20115;-59
2021/12/26 05:47:32;;;;;;;21.02;12.90;;;3.90;93.40;;;;;;5075712;28;20032;-60
2021/12/26 05:49:59;;;;;;;19.65;12.48;;;4.00;93.40;;;;;;5075216;28;20029;-59
2021/12/26 05:52:24;;;;;;;20.25;12.85;;;4.00;93.60;;;;;;5075432;28;20048;-60
2021/12/26 05:54:50;;;;;;;22.48;13.10;;;3.90;93.80;;;;;;5075421;28;20386;-58
2021/12/26 05:57:16;;;;;;;21.33;13.65;;;3.80;94.00;;;;;;5075474;28;20084;-60
2021/12/26 05:59:42;;;;;;;25.48;14.82;;;3.80;94.00;;;;;;5075376;28;20032;-61
2021/12/26 06:02:08;;;;;;;21.08;13.27;;;3.80;94.10;;;;;;5087952;28;20099;-61
2021/12/26 06:04:34;;;;;;;21.88;13.73;;;3.80;94.20;;;;;;5094387;28;20111;-60
2021/12/26 06:07:00;;;;;;;19.13;13.85;;;3.80;94.20;;;;;;5093646;28;20470;-60
2021/12/26 06:09:25;;;;;;;20.98;13.32;;;3.90;94.00;;;;;;5095408;28;20070;-61
2021/12/26 06:11:51;;;;;;;22.67;13.02;;;3.90;94.20;;;;;;5095159;28;20028;-60
2021/12/26 06:14:17;;;;;;;23.52;14.48;;;3.80;94.40;;;;;;5095130;28;20119;-60
2021/12/26 06:16:43;;;;;;;21.23;13.32;;;3.90;94.50;;;;;;5095285;28;20465;-60
2021/12/26 06:19:09;;;;;;;20.92;14.20;;;3.90;94.60;;;;;;5094360;28;20031;-60
2021/12/26 06:21:35;;;;;;;20.33;12.90;;;3.90;94.40;;;;;;5095149;28;20024;-61
2021/12/26 06:24:01;;;;;;;20.98;13.82;;;3.90;94.40;;;;;;5095051;28;20027;-60
2021/12/26 06:26:27;;;;;;;23.25;14.57;;;3.80;94.50;;;;;;5093642;28;20084;-60
2021/12/26 06:28:53;;;;;;;19.73;13.50;;;3.80;94.50;;;;;;5095228;28;20027;-60
2021/12/26 06:31:19;;;;;;;21.77;14.10;;;3.70;94.70;;;;;;5095024;28;20031;-61
2021/12/26 06:33:46;;;;;;;19.23;14.57;;;3.70;94.70;;;;;;5094769;28;20024;-61
2021/12/26 06:36:12;;;;;;;19.23;14.05;;;3.80;94.60;;;;;;5094842;28;20384;-60
2021/12/26 06:38:38;;;;;;;18.65;14.48;;;3.80;94.80;;;;;;5094975;28;20020;-61
2021/12/26 06:41:05;;;;;;;18.92;13.77;;;3.80;94.70;;;;;;5094767;28;20484;-61
2021/12/26 06:43:31;;;;;;;22.75;13.95;;;3.70;94.80;;;;;;5095127;28;20028;-59
2021/12/26 06:45:57;;;;;;;21.40;14.30;;;3.70;94.70;;;;;;5094677;28;20046;-60
2021/12/26 06:48:23;;;;;;;20.75;14.68;;;3.80;94.90;;;;;;5094413;28;20012;-60
2021/12/26 06:50:50;;;;;;;18.23;14.70;;;3.70;95.00;;;;;;5094639;28;20023;-60
2021/12/26 06:53:16;;;;;;;19.25;14.18;;;3.70;95.00;;;;;;5094503;28;20024;-60
2021/12/26 06:55:42;;;;;;;19.60;14.00;;;3.70;94.90;;;;;;5094511;28;20024;-60
2021/12/26 06:58:08;;;;;;;18.77;14.52;;;3.70;94.80;;;;;;5094402;28;20103;-61
2021/12/26 07:00:34;;;;;;;19.50;13.90;;;3.70;94.90;;;;;;5094319;28;20043;-59
2021/12/26 07:03:01;;;;;;;19.27;13.57;;;3.60;94.90;;;;;;5094300;28;20016;-60
2021/12/26 07:05:26;;;;;;;17.85;14.30;;;3.70;95.00;;;;;;5094250;28;20028;-59
2021/12/26 07:07:52;;;;;;;17.10;14.13;;;3.70;94.80;;;;;;5094495;28;20035;-61
2021/12/26 07:10:17;;;;;;;17.85;13.52;;;3.60;94.90;;;;;;5094043;28;20030;-60
2021/12/26 07:12:44;;;;;;;18.98;13.38;;;3.60;95.10;;;;;;5093957;28;20031;-60
2021/12/26 07:15:11;;;;;;;16.42;14.05;;;3.60;95.10;;;;;;5094017;28;20035;-60
2021/12/26 07:17:36;;;;;;;17.30;14.02;;;3.60;95.10;;;;;;5094087;28;20028;-59
2021/12/26 07:20:03;;;;;;;18.55;14.38;;;3.70;94.90;;;;;;5083158;28;20034;-60
2021/12/26 07:22:28;;;;;;;18.80;14.00;;;3.60;94.90;;;;;;5084741;28;20020;-60
2021/12/26 07:24:54;;;;;;;15.05;13.15;;;3.60;95.30;;;;;;5091852;28;20089;-60
2021/12/26 07:27:19;;;;;;;15.10;13.20;;;3.60;95.50;;;;;;5081133;28;20381;-60
2021/12/26 07:29:45;;;;;;;16.38;12.60;;;3.70;95.20;;;;;;5081357;28;20028;-60
2021/12/26 07:32:11;;;;;;;18.88;14.73;;;3.70;95.20;;;;;;5091858;28;20381;-60
2021/12/26 07:34:37;;;;;;;16.45;13.57;;;3.70;95.20;;;;;;5078190;28;20044;-59
2021/12/26 07:37:04;;;;;;;18.25;14.38;;;3.60;95.40;;;;;;5081955;28;20473;-60
2021/12/26 07:39:29;;;;;;;17.52;14.13;;;3.60;95.50;;;;;;5081736;28;20032;-60
2021/12/26 07:41:56;;;;;;;18.42;15.10;;;3.50;95.70;;;;;;5084575;28;20053;-59
2021/12/26 07:44:21;;;;;;;19.65;14.10;;;3.50;95.80;;;;;;5092944;28;20494;-59
2021/12/26 07:46:47;;;;;;;20.25;14.23;;;3.60;95.90;;;;;;5093686;28;20028;-59
2021/12/26 07:49:13;;;;;;;18.88;13.93;;;3.70;95.80;;;;;;5092263;28;20454;-59
2021/12/26 07:51:39;;;;;;;24.08;14.80;;;3.90;95.30;;;;;;5093471;28;20028;-59
2021/12/26 07:54:04;;;;;;;16.75;14.25;;;3.90;95.30;;;;;;5093592;28;20362;-60
2021/12/26 07:56:31;;;;;;;19.77;16.02;;;3.80;95.20;;;;;;5088354;28;20032;-59
2021/12/26 07:58:57;;;;;;;16.83;14.07;;;3.70;95.50;;;;;;5085421;28;20020;-59
2021/12/26 08:01:26;;;;;;;19.63;14.57;;;3.70;95.40;;;;;;5077183;28;20033;-59
2021/12/26 08:03:51;;;;;;;18.73;15.27;;;3.60;95.50;;;;;;5072155;28;20035;-59
2021/12/26 08:06:19;;;;;;;16.75;13.60;;;3.70;95.70;;;;;;5072685;28;20119;-59
2021/12/26 08:08:46;;;;;;;15.15;13.55;;;3.70;95.60;;;;;;5072705;28;20485;-59
2021/12/26 08:11:12;;;;;;;17.38;13.65;;;3.70;95.50;;;;;;5071965;28;20477;-59
2021/12/26 08:13:37;;;;;;;18.95;14.32;;;3.80;95.40;;;;;;5072458;28;20020;-59
2021/12/26 08:16:04;;;;;;;18.95;13.55;;;3.80;95.50;;;;;;5080529;28;20032;-60
2021/12/26 08:18:29;;;;;;;19.13;13.95;;;3.90;95.40;;;;;;5070290;28;20124;-59
2021/12/26 08:20:55;;;;;;;15.85;13.15;;;3.80;95.60;;;;;;5091649;28;20118;-60
2021/12/26 08:23:21;;;;;;;15.32;13.73;;;3.80;95.70;;;;;;5092906;28;20047;-59
2021/12/26 08:25:47;;;;;;;16.58;13.02;;;3.90;95.80;;;;;;5082881;28;20037;-59
2021/12/26 08:28:14;;;;;;;15.45;12.80;;;3.90;95.60;;;;;;5071347;28;20093;-59
2021/12/26 08:30:41;;;;;;;14.82;11.57;;;4.50;95.20;;;;;;5071637;28;20025;-60
2021/12/26 08:33:07;;;;;;;13.95;11.80;;;5.10;93.80;;;;;;5072593;28;20050;-59
2021/12/26 08:35:34;;;;;;;15.82;12.30;;;5.40;92.70;;;;;;5072763;28;20017;-59
2021/12/26 08:38:00;;;;;;;14.88;12.07;;;5.80;92.10;;;;;;5072873;28;20017;-59
2021/12/26 08:40:26;;;;;;;14.70;13.13;;;6.00;91.60;;;;;;5072694;28;20025;-59
2021/12/26 08:42:51;;;;;;;14.23;12.05;;;6.10;91.20;;;;;;5074513;28;20043;-59
2021/12/26 08:45:17;;;;;;;14.90;12.45;;;6.20;90.90;;;;;;5076765;28;20037;-59
2021/12/26 08:47:43;;;;;;;17.85;12.00;;;6.40;90.80;;;;;;5076530;28;20052;-60
2021/12/26 08:50:11;;;;;;;12.95;11.65;;;6.40;91.10;;;;;;5084167;28;20032;-60
2021/12/26 08:52:38;;;;;;;13.48;11.73;;;6.50;91.00;;;;;;5075213;28;20017;-60
2021/12/26 08:55:04;;;;;;;14.07;11.38;;;6.60;90.30;;;;;;5076686;28;20394;-60
2021/12/26 08:57:32;;;;;;;17.40;11.95;;;6.70;90.10;;;;;;5076253;28;20058;-59
2021/12/26 08:59:58;;;;;;;13.65;11.50;;;6.80;90.00;;;;;;5076424;28;20024;-60
2021/12/26 09:02:24;;;;;;;13.00;10.70;;;6.80;89.80;;;;;;5076076;28;20507;-60
2021/12/26 09:04:50;;;;;;;11.85;10.60;;;6.90;89.70;;;;;;5076304;28;20036;-59
2021/12/26 09:07:15;;;;;;;13.18;11.82;;;6.90;89.40;;;;;;5076485;28;20021;-60
2021/12/26 09:09:42;;;;;;;13.43;12.02;;;6.90;89.20;;;;;;5075063;28;20465;-60
2021/12/26 09:12:08;;;;;;;12.82;11.25;;;7.00;89.20;;;;;;5075938;28;20029;-60
2021/12/26 09:14:35;;;;;;;14.43;11.75;;;7.00;89.10;;;;;;5076221;28;20032;-59
2021/12/26 09:17:02;;;;;;;13.50;10.90;;;7.00;88.90;;;;;;5076297;28;20469;-61
2021/12/26 09:19:28;;;;;;;12.23;10.93;;;7.10;88.90;;;;;;5076089;28;20012;-60
2021/12/26 09:21:55;;;;;;;13.48;11.38;;;7.10;88.70;;;;;;5076253;28;20051;-60
2021/12/26 09:24:21;;;;;;;14.35;11.88;;;7.20;88.90;;;;;;5075886;28;20013;-60
2021/12/26 09:26:46;;;;;;;13.65;11.90;;;7.20;88.80;;;;;;5075786;28;20032;-60
2021/12/26 09:29:12;;;;;;;13.63;12.13;;;7.20;88.70;;;;;;5074629;28;20482;-60
2021/12/26 09:31:37;;;;;;;14.15;12.38;;;7.20;88.70;;;;;;5076247;28;20031;-61
2021/12/26 09:34:03;;;;;;;13.50;12.10;;;7.20;88.60;;;;;;5075827;28;20024;-59
2021/12/26 09:36:29;;;;;;;16.60;12.90;;;7.30;88.70;;;;;;5079631;28;20020;-59
2021/12/26 09:38:54;;;;;;;13.38;11.98;;;7.30;88.70;;;;;;5086061;28;20024;-60
2021/12/26 09:41:20;;;;;;;15.13;12.20;;;7.30;88.80;;;;;;5075549;28;20107;-60
2021/12/26 09:43:46;;;;;;;14.40;12.18;;;7.40;88.60;;;;;;5074524;28;20482;-60
2021/12/26 09:46:12;;;;;;;14.65;13.15;;;7.40;88.70;;;;;;5075506;28;20545;-59
2021/12/26 09:48:37;;;;;;;13.98;12.18;;;7.40;88.60;;;;;;5076002;28;20462;-60
2021/12/26 09:51:03;;;;;;;14.07;11.70;;;7.40;88.50;;;;;;5084304;28;20036;-62
2021/12/26 09:53:29;;;;;;;15.48;12.30;;;7.40;88.30;;;;;;5079053;28;20066;-61
2021/12/26 09:55:54;;;;;;;14.82;12.70;;;7.50;88.30;;;;;;5095786;28;20036;-59
2021/12/26 09:58:20;;;;;;;18.25;12.38;;;7.50;88.40;;;;;;5095981;28;20012;-60
2021/12/26 10:00:46;;;;;;;13.38;11.98;;;7.50;88.50;;;;;;5096133;28;20024;-60
2021/12/26 10:03:34;;;;;;;14.60;11.13;;;7.50;88.50;;;;;;5080635;28;20470;-61
2021/12/26 10:06:17;;;;;;;13.45;12.05;;;7.60;88.60;;;;;;5086086;28;20036;-61
2021/12/26 10:09:03;;;;;;;14.00;12.60;;;7.60;88.60;;;;;;5075548;28;20023;-60
2021/12/26 10:11:34;;;;;;;13.85;12.25;;;7.60;88.60;;;;;;5085696;28;20028;-64
2021/12/26 10:14:05;;;;;;;13.15;11.85;;;7.60;88.50;;;;;;5095410;28;20032;-60
2021/12/26 10:16:36;;;;;;;15.82;12.13;;;7.70;88.60;;;;;;5086848;28;20028;-62
2021/12/26 10:19:03;;;;;;;14.38;11.73;;;7.70;88.60;;;;;;5075105;28;20017;-61
2021/12/26 10:21:35;;;;;;;12.55;11.25;;;7.70;88.50;;;;;;5074652;28;20390;-59
2021/12/26 10:24:17;;;;;;;14.63;12.75;;;7.70;88.60;;;;;;5073200;28;20025;-59
2021/12/26 10:26:46;;;;;;;;;;;7.80;88.90;;;;;;5075351;28;20482;-60
2021/12/26 10:29:41;;;;;;;14.02;12.50;;;7.80;88.70;;;;;;5074767;28;19943;-59
2021/12/26 10:32:12;;;;;;;13.23;11.82;;;7.80;89.60;;;;;;5074782;28;20024;-59
2021/12/26 10:34:43;;;;;;;16.23;13.07;;;7.80;89.10;;;;;;5074599;28;20027;-60
2021/12/26 10:37:12;;;;;;;14.10;12.48;;;7.90;88.90;;;;;;5074768;28;20056;-60
2021/12/26 10:39:44;;;;;;;13.20;11.90;;;7.90;88.90;;;;;;5074378;28;20082;-60
2021/12/26 10:42:13;;;;;;;;;;;7.90;88.90;;;;;;5075003;28;20021;-59
2021/12/26 10:45:01;;;;;;;14.02;12.05;;;7.90;88.50;;;;;;5074226;28;19956;-60
2021/12/26 10:47:30;;;;;;;12.85;11.55;;;8.00;88.80;;;;;;5074536;28;20494;-59
2021/12/26 10:50:03;;;;;;;13.50;12.10;;;8.00;89.00;;;;;;5074457;28;20028;-60
2021/12/26 10:52:35;;;;;;;12.70;11.40;;;8.10;89.00;;;;;;5074418;28;20032;-59
2021/12/26 10:55:03;;;;;;;13.63;12.23;;;8.10;89.10;;;;;;5073888;28;20089;-59
2021/12/26 10:57:44;;;;;;;14.32;12.15;;;8.10;89.30;;;;;;5074229;28;20029;-60
2021/12/26 11:00:09;;;;;;;15.35;13.00;;;8.10;89.40;;;;;;5074020;28;20024;-60
2021/12/26 11:02:36;;;;;;;14.50;13.00;;;8.20;89.60;;;;;;5074160;28;20078;-60
2021/12/26 11:05:07;;;;;;;14.70;12.38;;;8.20;89.70;;;;;;5073541;28;20040;-60
2021/12/26 11:08:07;;;;;;;14.55;13.05;;;8.20;89.70;;;;;;5072613;28;20024;-60
2021/12/26 11:11:06;;;;;;;13.68;12.27;;;8.20;89.40;;;;;;5040811;28;20043;-61
2021/12/26 11:13:32;;;;;;;15.93;13.23;;;8.30;89.60;;;;;;5039998;28;20055;-59
2021/12/26 11:16:00;;;;;;;14.25;12.85;;;8.30;89.70;;;;;;5073827;28;20037;-60
2021/12/26 11:18:26;;;;;;;14.15;12.48;;;8.30;89.80;;;;;;5072569;28;20412;-61
2021/12/26 11:20:57;;;;;;;16.08;12.90;;;8.40;89.90;;;;;;5073627;28;20489;-60
2021/12/26 11:23:27;;;;;;;16.90;13.45;;;8.40;90.00;;;;;;5073486;28;20067;-60
2021/12/26 11:25:56;;;;;;;15.73;14.13;;;8.40;90.00;;;;;;5072296;28;20089;-60
2021/12/26 11:28:28;;;;;;;15.43;13.82;;;8.50;90.00;;;;;;5074642;28;20038;-61
2021/12/26 11:31:11;;;;;;;14.98;13.02;;;8.50;90.00;;;;;;5084546;28;20126;-60
2021/12/26 11:33:37;;;;;;;13.90;12.50;;;8.60;90.00;;;;;;5086278;28;20058;-60
2021/12/26 11:36:08;;;;;;;14.05;12.75;;;8.60;90.00;;;;;;5093767;28;20066;-60
2021/12/26 11:38:34;;;;;;;15.43;13.82;;;8.60;90.00;;;;;;5088983;28;20015;-60
2021/12/26 11:41:06;;;;;;;14.48;12.48;;;8.60;89.90;;;;;;5091784;28;20032;-60
2021/12/26 11:43:38;;;;;;;14.88;13.32;;;8.70;89.90;;;;;;5091986;28;20109;-61
2021/12/26 11:46:15;;;;;;;17.25;14.45;;;8.70;90.20;;;;;;5093429;28;20050;-60
2021/12/26 11:49:06;;;;;;;13.80;12.40;;;8.70;89.80;;;;;;5093680;28;20500;-60
2021/12/26 11:51:47;;;;;;;14.38;12.77;;;8.80;90.00;;;;;;5092922;28;20012;-60
2021/12/26 11:54:16;;;;;;;15.82;13.57;;;8.80;90.00;;;;;;5093323;28;20024;-60
2021/12/26 11:57:00;;;;;;;15.05;13.40;;;8.80;90.00;;;;;;5093437;28;20111;-60
2021/12/26 12:00:07;;;;;;;15.45;13.82;;;8.80;90.00;;;;;;5092601;28;20473;-60
2021/12/26 12:02:50;;;;;;;15.15;13.55;;;8.90;89.90;;;;;;5047701;28;20045;-60
2021/12/26 12:05:26;;;;;;;14.20;12.70;;;8.90;90.00;;;;;;5087607;28;20055;-60
2021/12/26 12:07:57;;;;;;;15.10;13.48;;;8.90;90.20;;;;;;5074391;28;20036;-60
2021/12/26 12:10:56;;;;;;;14.30;12.90;;;8.90;90.20;;;;;;5092077;28;20043;-60
2021/12/26 12:13:22;;;;;;;19.50;13.75;;;9.00;90.20;;;;;;5087293;28;20135;-59
2021/12/26 12:15:52;;;;;;;15.88;13.95;;;9.00;90.20;;;;;;5091643;28;20349;-60
2021/12/26 12:18:26;;;;;;;16.05;14.35;;;9.00;90.20;;;;;;5090327;28;20114;-60
2021/12/26 12:21:30;;;;;;;16.20;13.77;;;9.10;90.20;;;;;;5091445;28;20031;-60
2021/12/26 12:24:02;;;;;;;14.35;12.85;;;9.10;90.00;;;;;;5076223;28;20017;-58
2021/12/26 12:26:44;;;;;;;15.67;13.63;;;9.10;90.10;;;;;;5090493;28;20036;-60
2021/12/26 12:29:13;;;;;;;15.77;13.75;;;9.10;90.10;;;;;;5091880;28;20274;-61
2021/12/26 12:31:39;;;;;;;15.23;13.60;;;9.20;90.10;;;;;;5091679;28;20020;-59
2021/12/26 12:34:12;;;;;;;16.70;14.90;;;9.20;90.10;;;;;;5092005;28;20121;-59
2021/12/26 12:36:41;;;;;;;15.75;13.70;;;9.30;90.20;;;;;;5091695;28;20023;-60
2021/12/26 12:39:24;;;;;;;14.98;13.48;;;9.30;90.10;;;;;;5091820;28;20077;-60
2021/12/26 12:41:51;;;;;;;15.90;13.80;;;9.30;90.00;;;;;;5092174;28;20024;-59
2021/12/26 12:44:36;;;;;;;15.73;14.07;;;9.30;90.00;;;;;;5091656;28;20066;-59
2021/12/26 12:47:18;;;;;;;15.40;13.82;;;9.40;90.10;;;;;;5091911;28;20063;-60
2021/12/26 12:49:50;;;;;;;17.65;14.90;;;9.40;90.00;;;;;;5091325;28;20074;-60
2021/12/26 12:52:36;;;;;;;;;;;9.40;90.10;;;;;;5092376;28;20112;-59
2021/12/26 12:55:19;;;;;;;16.92;15.13;;;9.40;89.90;;;;;;5091764;28;19904;-60
2021/12/26 12:57:48;;;;;;;15.45;13.77;;;9.40;90.00;;;;;;5091976;28;20059;-60